Time;durP1;ratioP1;P1;durP2;ratioP2;P2;SDS_P1;SDS_P2;PMS_P1;PMS_P2;Temp;Humidity;BMP_temperature;BMP_pressure;BME280_temperature;BME280_humidity;BME280_pressure;Samples;Min_cycle;Max_cycle;Signal;HPM_P1;HPM_P2
2023/07/26 00:06:49;;;;;;;0.10;0.00;;;12.60;99.90;;;;;;25591848;23;20009;-48
2023/07/26 00:16:51;;;;;;;0.10;0.10;;;12.50;99.90;;;;;;25591476;23;20005;-47
2023/07/26 00:26:53;;;;;;;0.10;0.00;;;12.40;99.90;;;;;;25590817;23;20008;-49
2023/07/26 00:36:55;;;;;;;0.52;0.00;;;12.30;99.90;;;;;;25590494;23;20440;-56
2023/07/26 00:46:57;;;;;;;0.32;0.10;;;12.30;99.90;;;;;;25590230;23;20016;-45
2023/07/26 00:57:00;;;;;;;0.60;0.10;;;12.30;99.90;;;;;;25589779;23;20001;-47
2023/07/26 01:07:46;;;;;;;0.20;0.10;;;12.20;99.90;;;;;;25589448;23;20005;-57
2023/07/26 01:18:05;;;;;;;0.40;0.10;;;12.20;99.90;;;;;;25604205;23;20001;-48
2023/07/26 01:28:07;;;;;;;0.45;0.00;;;12.30;99.90;;;;;;25630043;23;20051;-47
2023/07/26 01:38:10;;;;;;;0.70;0.08;;;12.40;99.90;;;;;;25562657;23;20068;-47
2023/07/26 01:48:12;;;;;;;0.98;0.10;;;12.50;99.90;;;;;;25588930;23;20325;-49
2023/07/26 01:58:14;;;;;;;1.17;0.30;;;12.20;99.90;;;;;;25588581;23;20055;-57
2023/07/26 02:08:17;;;;;;;1.08;0.10;;;11.90;99.90;;;;;;25590828;23;20005;-57
2023/07/26 02:18:19;;;;;;;0.00;0.00;;;11.70;99.90;;;;;;25570060;23;19997;-47
2023/07/26 02:28:21;;;;;;;0.10;0.10;;;11.70;99.90;;;;;;25569212;23;20060;-57
2023/07/26 02:38:23;;;;;;;0.30;0.20;;;11.70;99.90;;;;;;25569058;23;20001;-58
2023/07/26 02:48:24;;;;;;;0.32;0.10;;;11.80;99.90;;;;;;25593868;23;20005;-48
2023/07/26 02:58:28;;;;;;;0.20;0.03;;;11.80;99.90;;;;;;25594028;23;20001;-50
2023/07/26 03:08:30;;;;;;;0.22;0.03;;;11.70;99.90;;;;;;25594001;23;20037;-57
2023/07/26 03:18:32;;;;;;;0.25;0.10;;;11.60;99.90;;;;;;25566945;23;20072;-47
2023/07/26 03:28:34;;;;;;;1.05;0.10;;;11.70;99.90;;;;;;25593337;23;20013;-57
2023/07/26 03:38:35;;;;;;;0.20;0.10;;;11.70;99.90;;;;;;25566348;23;20075;-48
2023/07/26 03:48:37;;;;;;;0.20;0.10;;;12.00;99.90;;;;;;25566604;23;20441;-46
2023/07/26 03:58:39;;;;;;;0.10;0.10;;;11.70;99.90;;;;;;25592108;23;20444;-45
2023/07/26 04:08:41;;;;;;;1.55;0.10;;;11.60;99.90;;;;;;25565498;23;20001;-50
2023/07/26 04:18:44;;;;;;;0.38;0.10;;;11.50;99.90;;;;;;25591288;23;20498;-57
2023/07/26 04:28:46;;;;;;;0.20;0.10;;;11.50;99.90;;;;;;25590935;23;20005;-46
2023/07/26 04:38:48;;;;;;;0.30;0.10;;;11.60;99.90;;;;;;25590382;23;20014;-57
2023/07/26 04:48:50;;;;;;;0.08;0.05;;;11.80;99.90;;;;;;25590500;23;20071;-48
2023/07/26 04:58:52;;;;;;;0.30;0.17;;;11.90;99.90;;;;;;25589881;23;20001;-46
2023/07/26 05:08:54;;;;;;;1.50;0.10;;;12.00;99.90;;;;;;25589935;23;20009;-56
2023/07/26 05:18:57;;;;;;;0.35;0.00;;;12.10;99.90;;;;;;25589632;23;20463;-47
2023/07/26 05:28:59;;;;;;;0.25;0.10;;;12.10;99.90;;;;;;25589052;23;20428;-46
2023/07/26 05:39:01;;;;;;;0.68;0.10;;;12.20;99.90;;;;;;25589312;23;20413;-49
2023/07/26 05:49:03;;;;;;;1.20;0.10;;;12.30;99.90;;;;;;25596492;23;20017;-47
2023/07/26 05:59:05;;;;;;;0.70;0.03;;;12.30;99.90;;;;;;25596688;23;20150;-56
2023/07/26 06:09:07;;;;;;;1.88;0.10;;;12.50;99.90;;;;;;25596434;23;20064;-55
2023/07/26 06:19:09;;;;;;;0.63;0.10;;;12.60;99.90;;;;;;25595869;23;20751;-51
2023/07/26 06:29:11;;;;;;;0.10;0.00;;;12.80;99.90;;;;;;25595535;23;20001;-50
2023/07/26 06:39:13;;;;;;;0.05;0.05;;;;;;;;;;25568121;23;20075;-49
2023/07/26 06:49:15;;;;;;;0.05;0.00;;;16.20;96.90;;;;;;25595058;23;20005;-56
2023/07/26 06:59:18;;;;;;;0.00;0.00;;;16.90;96.20;;;;;;25594091;23;20001;-58
2023/07/26 07:09:20;;;;;;;0.20;0.10;;;17.30;94.90;;;;;;25594210;23;20005;-58
2023/07/26 07:19:22;;;;;;;0.32;0.10;;;18.30;93.90;;;;;;25594029;23;20027;-58
2023/07/26 07:29:23;;;;;;;0.00;0.00;;;17.90;93.40;;;;;;25567981;23;20020;-58
2023/07/26 07:39:25;;;;;;;0.20;0.10;;;18.10;92.80;;;;;;25592858;23;20017;-57
2023/07/26 07:49:28;;;;;;;0.10;0.00;;;17.60;93.90;;;;;;25592827;23;20332;-48
2023/07/26 07:59:30;;;;;;;0.00;0.00;;;17.50;92.60;;;;;;25565308;23;20348;-58
2023/07/26 08:09:32;;;;;;;0.00;0.00;;;17.50;93.80;;;;;;25591637;23;20083;-52
2023/07/26 08:19:34;;;;;;;0.08;0.00;;;17.90;92.60;;;;;;25591108;23;20016;-58
2023/07/26 08:29:36;;;;;;;0.00;0.00;;;18.00;92.50;;;;;;25564644;23;20008;-58
2023/07/26 08:39:38;;;;;;;0.40;0.20;;;18.00;94.40;;;;;;25590324;23;20016;-58
2023/07/26 08:49:40;;;;;;;0.00;0.00;;;18.20;92.90;;;;;;25590185;23;20001;-58
2023/07/26 08:59:43;;;;;;;2.65;0.10;;;18.30;94.10;;;;;;25589603;23;20001;-59
2023/07/26 09:09:45;;;;;;;1.48;0.10;;;18.50;92.40;;;;;;25589614;23;20009;-51
2023/07/26 09:19:50;;;;;;;1.65;0.03;;;18.50;92.70;;;;;;25588912;23;20067;-58
2023/07/26 09:29:56;;;;;;;0.28;0.03;;;18.70;93.70;;;;;;25589029;23;20005;-58
2023/07/26 09:39:58;;;;;;;0.10;0.00;;;18.60;94.70;;;;;;25588585;23;20344;-58
2023/07/26 09:50:00;;;;;;;0.20;0.10;;;19.10;92.10;;;;;;25588920;23;20036;-58
2023/07/26 10:00:04;;;;;;;0.20;0.10;;;18.80;93.90;;;;;;25588173;23;20005;-58
2023/07/26 10:10:08;;;;;;;1.00;0.10;;;19.80;95.00;;;;;;25588176;23;20266;-58
2023/07/26 10:20:10;;;;;;;0.15;0.00;;;19.70;94.90;;;;;;25588029;23;20009;-58
2023/07/26 10:30:12;;;;;;;0.15;0.10;;;20.90;92.30;;;;;;25591044;23;20055;-58
2023/07/26 10:40:28;;;;;;;0.45;0.10;;;21.70;91.30;;;;;;25594560;23;20089;-58
2023/07/26 10:50:30;;;;;;;0.65;0.28;;;22.10;90.50;;;;;;25568699;23;20013;-59
2023/07/26 11:00:34;;;;;;;0.73;0.20;;;21.90;90.40;;;;;;25594579;23;20332;-59
2023/07/26 11:10:38;;;;;;;0.10;0.10;;;22.00;91.60;;;;;;25593838;23;20009;-59
2023/07/26 11:20:51;;;;;;;0.05;0.05;;;21.20;91.40;;;;;;25592393;23;20005;-59
2023/07/26 11:30:55;;;;;;;0.10;0.10;;;21.60;89.80;;;;;;25634773;23;20017;-59
2023/07/26 11:40:57;;;;;;;0.17;0.00;;;21.90;92.60;;;;;;25591952;23;20017;-58
2023/07/26 11:51:01;;;;;;;0.35;0.13;;;21.70;89.60;;;;;;25592960;23;20009;-60
2023/07/26 12:01:04;;;;;;;0.10;0.08;;;22.20;93.20;;;;;;25591828;23;20001;-57
2023/07/26 12:11:06;;;;;;;0.20;0.15;;;22.20;92.10;;;;;;25590935;23;20074;-57
2023/07/26 12:21:09;;;;;;;0.28;0.10;;;21.30;94.60;;;;;;25591247;23;20507;-57
2023/07/26 12:31:37;;;;;;;0.98;0.10;;;21.20;93.70;;;;;;25590927;23;20005;-57
2023/07/26 12:41:42;;;;;;;0.10;0.10;;;21.20;93.00;;;;;;25586096;23;20009;-57
2023/07/26 12:51:46;;;;;;;0.20;0.10;;;20.90;94.80;;;;;;25590243;23;20010;-60
2023/07/26 13:01:48;;;;;;;0.08;0.08;;;20.50;91.60;;;;;;25589956;23;20324;-61
2023/07/26 13:11:50;;;;;;;0.52;0.10;;;20.10;93.70;;;;;;25589849;23;20005;-60
2023/07/26 13:21:52;;;;;;;1.52;0.40;;;20.70;91.20;;;;;;25589353;23;20001;-58
2023/07/26 13:31:54;;;;;;;0.50;0.30;;;20.50;92.60;;;;;;25589667;23;20020;-58
2023/07/26 13:41:55;;;;;;;1.17;0.38;;;20.20;94.20;;;;;;25588721;23;20347;-50
2023/07/26 13:51:57;;;;;;;0.90;0.50;;;20.50;94.80;;;;;;25588619;23;20001;-58
2023/07/26 14:02:01;;;;;;;0.90;0.45;;;20.90;95.40;;;;;;25589170;23;20055;-58
2023/07/26 14:12:02;;;;;;;1.25;0.63;;;21.80;92.20;;;;;;25596336;23;20009;-58
2023/07/26 14:22:05;;;;;;;0.52;0.40;;;21.90;92.60;;;;;;25569199;23;20476;-58
2023/07/26 14:32:07;;;;;;;0.73;0.57;;;22.20;91.50;;;;;;25593772;23;20451;-58
2023/07/26 14:42:09;;;;;;;0.80;0.80;;;22.40;91.70;;;;;;25593226;23;20005;-53
2023/07/26 14:52:10;;;;;;;2.85;0.90;;;21.70;86.00;;;;;;25566556;23;20440;-58
2023/07/26 15:02:14;;;;;;;2.55;1.00;;;21.50;91.80;;;;;;25594010;23;20092;-58
2023/07/26 15:12:16;;;;;;;1.02;0.70;;;22.20;93.00;;;;;;25593897;23;20005;-50
2023/07/26 15:22:19;;;;;;;1.50;0.77;;;22.30;93.20;;;;;;25593415;23;20008;-59
2023/07/26 15:32:20;;;;;;;2.83;1.27;;;21.00;92.50;;;;;;25592948;23;20134;-59
2023/07/26 15:42:23;;;;;;;2.78;1.70;;;20.70;92.50;;;;;;25592854;23;20012;-49
2023/07/26 15:52:25;;;;;;;2.92;1.42;;;21.10;90.40;;;;;;25593929;23;20009;-59
2023/07/26 16:02:27;;;;;;;3.80;1.40;;;19.60;96.00;;;;;;25591821;23;20028;-59
2023/07/26 16:12:29;;;;;;;3.22;1.70;;;18.10;98.40;;;;;;25591837;23;20012;-59
2023/07/26 16:22:30;;;;;;;2.28;1.40;;;17.10;98.50;;;;;;25591066;23;20372;-60
2023/07/26 16:32:32;;;;;;;3.25;1.85;;;16.70;99.90;;;;;;25590341;23;20017;-59
2023/07/26 16:42:34;;;;;;;2.13;1.55;;;16.50;99.90;;;;;;25590535;23;20467;-59
2023/07/26 16:52:37;;;;;;;2.50;1.90;;;16.30;99.90;;;;;;25589854;23;20036;-59
2023/07/26 17:02:39;;;;;;;1.98;1.42;;;16.40;99.90;;;;;;25589265;23;20060;-59
2023/07/26 17:12:41;;;;;;;1.90;1.13;;;16.30;99.90;;;;;;25589403;23;20047;-59
2023/07/26 17:22:42;;;;;;;2.63;1.27;;;15.80;99.90;;;;;;25590627;23;20333;-59
2023/07/26 17:32:44;;;;;;;2.78;1.50;;;15.10;99.90;;;;;;25589515;23;20016;-59
2023/07/26 17:42:46;;;;;;;4.15;1.73;;;14.80;99.90;;;;;;25595012;23;20060;-59
2023/07/26 17:52:48;;;;;;;2.92;1.38;;;14.50;99.90;;;;;;25597473;23;20009;-57
2023/07/26 18:02:50;;;;;;;3.35;1.10;;;14.10;99.90;;;;;;25597247;23;20008;-59
2023/07/26 18:12:52;;;;;;;2.08;1.05;;;13.80;99.90;;;;;;25596983;23;20005;-59
2023/07/26 18:22:54;;;;;;;2.22;1.40;;;13.60;99.90;;;;;;25596615;23;20012;-47
2023/07/26 18:32:56;;;;;;;1.45;1.17;;;13.30;99.90;;;;;;25596303;23;20017;-46
2023/07/26 18:42:58;;;;;;;2.00;1.17;;;13.00;99.90;;;;;;25597376;23;20009;-59
2023/07/26 18:53:00;;;;;;;2.65;1.40;;;12.80;99.90;;;;;;25595154;23;20005;-59
2023/07/26 19:03:03;;;;;;;5.35;1.77;;;12.60;99.90;;;;;;25595274;23;20332;-58
2023/07/26 19:13:05;;;;;;;2.90;1.73;;;12.60;99.90;;;;;;25594805;23;20084;-57
2023/07/26 19:23:07;;;;;;;9.55;4.85;;;12.90;99.90;;;;;;25593869;23;20424;-58
2023/07/26 19:33:09;;;;;;;6.45;3.75;;;13.00;99.90;;;;;;25593605;23;20013;-58
2023/07/26 19:43:11;;;;;;;2.92;2.15;;;13.10;99.90;;;;;;25593423;23;20314;-47
2023/07/26 19:53:16;;;;;;;2.55;1.70;;;13.00;99.90;;;;;;25592779;23;20032;-46
2023/07/26 20:03:19;;;;;;;2.53;1.35;;;12.90;99.90;;;;;;25591675;23;20013;-49
2023/07/26 20:13:21;;;;;;;3.53;1.45;;;12.60;99.90;;;;;;25591981;23;20009;-58
2023/07/26 20:23:25;;;;;;;4.25;1.83;;;12.50;99.90;;;;;;25591324;23;20005;-58
2023/07/26 20:33:29;;;;;;;2.40;1.25;;;12.30;99.90;;;;;;25591172;23;20009;-58
2023/07/26 20:43:31;;;;;;;5.50;1.70;;;11.90;99.90;;;;;;25590348;23;20388;-58
2023/07/26 20:53:34;;;;;;;2.70;1.20;;;12.00;99.90;;;;;;25590417;23;20390;-58
2023/07/26 21:03:35;;;;;;;0.98;0.60;;;12.30;99.90;;;;;;25589745;23;20009;-58
2023/07/26 21:13:38;;;;;;;1.15;0.60;;;12.10;99.90;;;;;;25589435;23;20005;-59
2023/07/26 21:23:40;;;;;;;1.08;0.45;;;12.00;99.90;;;;;;25589200;23;20012;-59
2023/07/26 21:33:43;;;;;;;1.00;0.50;;;11.80;99.90;;;;;;25589447;23;20057;-58
2023/07/26 21:43:45;;;;;;;0.88;0.45;;;11.90;99.90;;;;;;25588775;23;20376;-59
2023/07/26 21:53:46;;;;;;;0.90;0.43;;;11.70;99.90;;;;;;25588434;23;20001;-58
2023/07/26 22:03:48;;;;;;;0.60;0.30;;;11.70;99.90;;;;;;25588853;23;20002;-58
2023/07/26 22:13:50;;;;;;;0.70;0.30;;;11.80;99.90;;;;;;25588550;23;20009;-57
2023/07/26 22:23:54;;;;;;;0.63;0.40;;;11.90;99.70;;;;;;25589818;23;20013;-58
2023/07/26 22:33:56;;;;;;;1.45;0.60;;;12.10;99.00;;;;;;25595521;23;20451;-57
2023/07/26 22:43:58;;;;;;;0.55;0.32;;;12.00;98.30;;;;;;25595219;23;20021;-57
2023/07/26 22:53:59;;;;;;;0.75;0.40;;;11.80;97.50;;;;;;25568524;23;20384;-48
2023/07/26 23:04:01;;;;;;;0.90;0.32;;;11.60;97.20;;;;;;25594461;23;20005;-51
2023/07/26 23:14:03;;;;;;;0.43;0.22;;;11.70;96.50;;;;;;25593891;23;20005;-56
2023/07/26 23:24:05;;;;;;;0.50;0.30;;;11.80;96.50;;;;;;25593587;23;20016;-57
2023/07/26 23:34:07;;;;;;;0.60;0.30;;;11.80;96.80;;;;;;25592320;23;20017;-57
2023/07/26 23:44:09;;;;;;;0.45;0.30;;;11.60;96.60;;;;;;25593003;23;20376;-57
2023/07/26 23:54:11;;;;;;;1.02;0.43;;;11.60;96.50;;;;;;25592671;23;20063;-58
